createdAt,value
2022-11-19T00:01:42.505Z,26.13
2022-11-19T00:03:56.283Z,27.33
2022-11-19T00:06:11.361Z,26.49
2022-11-19T00:08:21.012Z,27.20
2022-11-19T00:10:27.494Z,27.25
2022-11-19T00:12:45.704Z,26.83
2022-11-19T00:14:51.366Z,26.66
2022-11-19T00:16:58.025Z,25.15
2022-11-19T00:19:03.835Z,23.59
2022-11-19T00:21:16.501Z,20.45
2022-11-19T00:23:22.980Z,19.46
2022-11-19T00:25:31.648Z,18.06
2022-11-19T00:27:37.431Z,21.98
2022-11-19T00:29:43.934Z,21.91
2022-11-19T00:31:49.558Z,21.85
2022-11-19T00:33:55.307Z,22.20
2022-11-19T00:36:03.484Z,21.38
2022-11-19T00:38:11.865Z,21.37
2022-11-19T00:40:17.662Z,21.30
2022-11-19T00:42:24.693Z,21.85
2022-11-19T00:44:30.344Z,21.25
2022-11-19T00:46:39.790Z,20.67
2022-11-19T00:48:47.791Z,21.43
2022-11-19T00:50:55.458Z,21.51
2022-11-19T00:53:01.169Z,22.84
2022-11-19T00:55:12.318Z,22.74
2022-11-19T00:57:18.001Z,23.78
2022-11-19T00:59:23.689Z,24.33
2022-11-19T01:01:44.982Z,23.66
2022-11-19T01:03:52.154Z,24.44
2022-11-19T01:05:58.462Z,25.65
2022-11-19T01:08:05.086Z,26.06
2022-11-19T01:10:16.283Z,24.72
2022-11-19T01:12:22.028Z,26.50
2022-11-19T01:14:28.575Z,24.72
2022-11-19T01:16:43.765Z,23.53
2022-11-19T01:18:52.218Z,21.96
2022-11-19T01:20:59.023Z,21.16
2022-11-19T01:23:04.767Z,20.76
2022-11-19T01:25:16.891Z,21.20
2022-11-19T01:27:23.413Z,22.24
2022-11-19T01:29:29.311Z,21.92
2022-11-19T01:31:35.012Z,21.77
2022-11-19T01:33:41.757Z,21.40
2022-11-19T01:35:47.506Z,22.04
2022-11-19T01:37:56.334Z,22.58
2022-11-19T01:40:02.829Z,23.42
2022-11-19T01:42:40.055Z,23.39
2022-11-19T01:45:09.674Z,24.00
2022-11-19T01:47:16.617Z,24.29
2022-11-19T01:49:24.235Z,23.44
2022-11-19T01:51:39.614Z,23.43
2022-11-19T01:54:04.787Z,24.42
2022-11-19T01:56:20.699Z,23.60
2022-11-19T01:58:29.685Z,24.05
2022-11-19T02:00:37.153Z,24.84
2022-11-19T02:02:42.940Z,23.31
